Time;durP1;ratioP1;P1;durP2;ratioP2;P2;SDS_P1;SDS_P2;PMS_P1;PMS_P2;Temp;Humidity;BMP_temperature;BMP_pressure;BME280_temperature;BME280_humidity;BME280_pressure;Samples;Min_cycle;Max_cycle;Signal;HPM_P1;HPM_P2
2024/01/22 00:02:22;;;;;;;5.78;3.40;;;;;;;;;;5064371;28;20032;-83
2024/01/22 00:04:49;;;;;;;6.88;3.55;;;;;;;;;;5047302;28;20563;-83
2024/01/22 00:07:15;;;;;;;7.45;3.47;;;;;;;;;;5067829;28;20536;-83
2024/01/22 00:09:42;;;;;;;6.15;3.50;;;;;;;;;;5063667;28;20542;-83
2024/01/22 00:12:07;;;;;;;7.32;3.85;;;;;;;;;;5069951;28;20032;-83
2024/01/22 00:14:34;;;;;;;5.72;3.17;;;;;;;;;;5067174;28;20382;-83
2024/01/22 00:17:00;;;;;;;7.55;3.55;;;;;;;;;;5071034;28;20016;-84
2024/01/22 00:19:27;;;;;;;10.15;3.80;;;;;;;;;;5064746;28;20025;-83
2024/01/22 00:21:52;;;;;;;10.30;3.70;;;;;;;;;;5046667;28;20056;-84
2024/01/22 00:24:18;;;;;;;6.20;3.53;;;;;;;;;;5047096;28;20071;-83
2024/01/22 00:26:43;;;;;;;5.75;3.50;;;;;;;;;;5070152;28;20032;-84
2024/01/22 00:29:08;;;;;;;7.43;3.88;;;;;;;;;;5071343;28;20475;-84
2024/01/22 00:31:35;;;;;;;6.35;3.55;;;;;;;;;;5071131;28;20032;-84
2024/01/22 00:34:00;;;;;;;7.45;3.53;;;;;;;;;;5068926;28;20047;-83
2024/01/22 00:36:26;;;;;;;6.35;3.28;;;;;;;;;;5072502;28;20056;-84
2024/01/22 00:38:51;;;;;;;6.72;3.88;;;;;;;;;;5068410;28;20027;-84
2024/01/22 00:41:17;;;;;;;7.20;3.72;;;;;;;;;;5069506;28;20039;-83
2024/01/22 00:43:42;;;;;;;7.28;3.67;;;;;;;;;;5065179;28;20028;-84
2024/01/22 00:46:08;;;;;;;6.55;3.10;;;;;;;;;;5069667;28;20044;-84
2024/01/22 00:48:33;;;;;;;5.70;3.05;;;;;;;;;;5067329;28;20023;-83
2024/01/22 00:50:58;;;;;;;6.93;3.30;;;;;;;;;;5069171;28;20025;-83
2024/01/22 00:53:24;;;;;;;7.25;3.45;;;;;;;;;;5069052;28;20492;-83
2024/01/22 00:55:51;;;;;;;6.30;3.20;;;;;;;;;;5071224;28;20440;-83
2024/01/22 00:58:16;;;;;;;7.18;3.25;;;;;;;;;;5067516;28;20018;-84
2024/01/22 01:00:44;;;;;;;6.85;3.20;;;;;;;;;;5069127;28;20548;-83
2024/01/22 01:03:10;;;;;;;5.70;3.17;;;;;;;;;;5071500;28;20032;-83
2024/01/22 01:05:36;;;;;;;7.10;3.15;;;;;;;;;;5067041;28;20025;-83
2024/01/22 01:08:02;;;;;;;5.80;2.92;;;;;;;;;;5070231;28;20028;-83
2024/01/22 01:10:28;;;;;;;5.57;2.78;;;;;;;;;;5065831;28;20473;-83
2024/01/22 01:12:54;;;;;;;5.15;3.03;;;;;;;;;;5051112;28;20090;-83
2024/01/22 01:15:22;;;;;;;7.28;3.50;;;;;;;;;;5069868;28;20029;-83
2024/01/22 01:17:47;;;;;;;6.45;3.00;;;;;;;;;;5066443;28;20033;-83
2024/01/22 01:20:12;;;;;;;5.97;3.28;;;;;;;;;;5068874;28;20041;-83
2024/01/22 01:22:38;;;;;;;6.32;3.20;;;;;;;;;;5063005;28;20017;-83
2024/01/22 01:25:04;;;;;;;7.28;2.97;;;;;;;;;;5068498;28;20155;-83
2024/01/22 01:27:30;;;;;;;7.20;3.00;;;;;;;;;;5045276;28;20119;-84
2024/01/22 01:29:59;;;;;;;7.20;3.25;;;;;;;;;;5067474;28;20506;-78
2024/01/22 01:32:26;;;;;;;5.05;2.80;;;;;;;;;;5067896;28;20028;-78
2024/01/22 01:34:51;;;;;;;5.40;2.75;;;;;;;;;;5061052;28;20020;-78
2024/01/22 01:37:18;;;;;;;6.28;3.00;;;;;;;;;;5068864;28;20028;-77
2024/01/22 01:39:45;;;;;;;5.70;2.92;;;;;;;;;;5064758;28;20027;-78
2024/01/22 01:42:10;;;;;;;4.28;2.63;;;;;;;;;;5061038;28;20035;-78
2024/01/22 01:44:38;;;;;;;6.88;2.85;;;;;;;;;;5062555;28;20032;-78
2024/01/22 01:47:06;;;;;;;5.22;2.65;;;;;;;;;;5068629;28;20494;-78
2024/01/22 01:49:32;;;;;;;5.53;3.00;;;;;;;;;;5047648;28;20049;-78
2024/01/22 01:51:58;;;;;;;6.60;3.10;;;;;;;;;;5062522;28;20024;-77
2024/01/22 01:54:27;;;;;;;5.30;2.70;;;;;;;;;;5065233;28;20425;-78
2024/01/22 01:56:57;;;;;;;4.95;2.60;;;;;;;;;;5065767;28;20063;-77
2024/01/22 01:59:26;;;;;;;5.22;2.65;;;;;;;;;;5061639;28;20115;-77
2024/01/22 02:01:52;;;;;;;8.18;2.83;;;;;;;;;;5062700;28;20028;-77
2024/01/22 02:04:18;;;;;;;4.82;2.63;;;;;;;;;;5062481;22;20484;-81
2024/01/22 02:06:43;;;;;;;6.07;2.65;;;;;;;;;;5015124;28;20082;-81
2024/01/22 02:09:09;;;;;;;5.00;2.45;;;;;;;;;;5017694;28;20653;-81
2024/01/22 02:11:34;;;;;;;6.00;2.40;;;;;;;;;;5017656;28;20450;-81
2024/01/22 02:13:59;;;;;;;3.90;2.33;;;;;;;;;;5031428;28;20120;-81
2024/01/22 02:16:25;;;;;;;4.15;2.15;;;;;;;;;;5013470;28;20029;-80
2024/01/22 02:18:50;;;;;;;4.13;2.30;;;;;;;;;;5011792;28;20434;-80
2024/01/22 02:21:16;;;;;;;7.05;2.30;;;;;;;;;;5015753;28;20032;-80
2024/01/22 02:23:41;;;;;;;5.30;2.33;;;;;;;;;;5027908;28;20034;-80
2024/01/22 02:26:06;;;;;;;6.30;2.50;;;;;;;;;;5028951;28;20033;-80
2024/01/22 02:28:32;;;;;;;3.92;1.95;;;;;;;;;;5011396;28;20451;-80
2024/01/22 02:30:59;;;;;;;3.90;2.20;;;;;;;;;;5031567;28;20435;-80
2024/01/22 02:33:24;;;;;;;5.43;2.08;;;;;;;;;;5034018;28;20030;-79
2024/01/22 02:35:50;;;;;;;3.95;2.25;;;;;;;;;;5027478;28;20029;-80
2024/01/22 02:38:15;;;;;;;4.40;2.03;;;;;;;;;;5030195;28;20053;-80
2024/01/22 02:40:40;;;;;;;3.92;2.10;;;;;;;;;;5035618;28;20025;-80
2024/01/22 02:43:06;;;;;;;3.65;2.10;;;;;;;;;;5017530;28;20029;-80
2024/01/22 02:45:31;;;;;;;4.63;2.22;;;;;;;;;;5028446;28;20053;-80
2024/01/22 02:47:57;;;;;;;8.23;2.28;;;;;;;;;;5022102;28;20091;-80
2024/01/22 02:50:22;;;;;;;5.22;2.05;;;;;;;;;;5032034;28;20029;-80
2024/01/22 02:52:47;;;;;;;3.55;1.90;;;;;;;;;;5019723;28;20025;-80
2024/01/22 02:55:14;;;;;;;4.13;2.03;;;;;;;;;;5027276;28;20029;-80
2024/01/22 02:57:39;;;;;;;3.80;2.00;;;;;;;;;;5023176;28;20029;-80
2024/01/22 03:00:06;;;;;;;3.60;1.95;;;;;;;;;;5013465;28;20467;-79
2024/01/22 03:02:33;;;;;;;4.28;2.20;;;;;;;;;;4994738;28;20052;-80
2024/01/22 03:04:58;;;;;;;4.05;2.17;;;;;;;;;;5021088;28;20163;-81
2024/01/22 03:07:23;;;;;;;3.97;2.05;;;;;;;;;;5016072;28;20107;-81
2024/01/22 03:09:49;;;;;;;4.30;1.80;;;;;;;;;;5014418;28;20049;-80
2024/01/22 03:12:14;;;;;;;4.13;2.20;;;;;;;;;;5019549;28;20067;-81
2024/01/22 03:14:40;;;;;;;4.18;1.92;;;;;;;;;;5017930;28;20048;-80
2024/01/22 03:17:05;;;;;;;3.53;2.10;;;;;;;;;;5030815;28;20123;-80
2024/01/22 03:19:30;;;;;;;4.15;2.30;;;;;;;;;;5031739;28;20398;-81
2024/01/22 03:21:56;;;;;;;3.58;1.90;;;;;;;;;;5017827;28;20037;-80
2024/01/22 03:24:22;;;;;;;4.03;2.30;;;;;;;;;;5010172;28;20030;-81
2024/01/22 03:26:47;;;;;;;3.03;1.80;;;;;;;;;;5025467;28;20029;-81
2024/01/22 03:29:13;;;;;;;4.22;2.03;;;;;;;;;;5011447;28;20546;-81
2024/01/22 03:31:38;;;;;;;2.78;1.58;;;;;;;;;;5027027;28;20407;-81
2024/01/22 03:34:04;;;;;;;4.35;2.05;;;;;;;;;;5032084;28;20435;-81
2024/01/22 03:36:29;;;;;;;3.83;1.90;;;;;;;;;;5033454;28;20144;-81
2024/01/22 03:38:55;;;;;;;3.38;1.73;;;;;;;;;;5029008;28;20036;-81
2024/01/22 03:41:20;;;;;;;3.13;1.80;;;;;;;;;;5034242;28;20029;-81
2024/01/22 03:43:46;;;;;;;3.72;1.70;;;;;;;;;;5034067;28;20025;-81
2024/01/22 03:46:12;;;;;;;3.88;2.20;;;;;;;;;;5032549;28;20047;-81
2024/01/22 03:48:38;;;;;;;3.17;1.80;;;;;;;;;;5028671;28;20160;-81
2024/01/22 03:51:04;;;;;;;3.45;1.70;;;;;;;;;;5037625;28;20125;-81
2024/01/22 03:53:30;;;;;;;3.25;1.70;;;;;;;;;;5034472;28;20044;-81
2024/01/22 03:55:55;;;;;;;3.80;1.70;;;;;;;;;;5027157;28;20597;-81
2024/01/22 03:58:21;;;;;;;3.28;1.73;;;;;;;;;;5029197;28;20037;-81
2024/01/22 04:00:46;;;;;;;3.53;1.70;;;;;;;;;;5013176;28;20033;-81
2024/01/22 04:03:12;;;;;;;3.40;1.50;;;;;;;;;;5028585;28;20495;-81
2024/01/22 04:05:37;;;;;;;2.42;1.52;;;;;;;;;;5040715;28;20064;-81
2024/01/22 04:08:03;;;;;;;2.30;1.45;;;;;;;;;;5035082;28;20025;-81
2024/01/22 04:10:29;;;;;;;2.95;1.63;;;;;;;;;;5021311;28;20450;-81
2024/01/22 04:12:55;;;;;;;2.67;1.40;;;;;;;;;;5022067;28;20028;-81
2024/01/22 04:15:21;;;;;;;2.97;1.60;;;;;;;;;;5035630;28;20361;-81
2024/01/22 04:17:46;;;;;;;2.75;1.42;;;;;;;;;;5034784;28;20033;-81
2024/01/22 04:20:12;;;;;;;4.07;1.38;;;;;;;;;;5015922;28;20090;-80
2024/01/22 04:22:37;;;;;;;3.15;1.27;;;;;;;;;;5032689;28;20045;-81
2024/01/22 04:25:03;;;;;;;2.05;1.40;;;;;;;;;;5020450;28;20029;-80
2024/01/22 04:27:29;;;;;;;3.10;1.50;;;;;;;;;;5022047;28;20386;-81
2024/01/22 04:29:54;;;;;;;2.42;1.23;;;;;;;;;;5028177;28;20029;-81
2024/01/22 04:32:20;;;;;;;2.72;1.58;;;;;;;;;;5035641;28;20428;-81
2024/01/22 04:34:46;;;;;;;2.15;1.40;;;;;;;;;;5019380;28;20032;-81
2024/01/22 04:37:12;;;;;;;2.08;1.25;;;;;;;;;;4984990;28;20034;-81
2024/01/22 04:39:39;;;;;;;2.75;1.40;;;;;;;;;;5029519;28;20748;-81
2024/01/22 04:42:04;;;;;;;2.92;1.60;;;;;;;;;;5031588;28;20032;-81
2024/01/22 04:44:30;;;;;;;3.22;1.52;;;;;;;;;;5025285;28;20042;-81
2024/01/22 04:46:56;;;;;;;2.28;1.30;;;;;;;;;;5026105;28;20036;-81
2024/01/22 04:49:21;;;;;;;3.45;1.40;;;;;;;;;;5023346;28;20190;-81
2024/01/22 04:51:47;;;;;;;3.03;1.35;;;;;;;;;;5009586;28;20197;-81
2024/01/22 04:54:12;;;;;;;2.15;1.30;;;;;;;;;;5010418;28;20026;-81
2024/01/22 04:56:42;;;;;;;3.33;1.30;;;;;;;;;;5026682;28;20052;-81
2024/01/22 04:59:08;;;;;;;1.92;1.20;;;;;;;;;;5023728;28;20029;-80
2024/01/22 05:01:33;;;;;;;4.07;1.30;;;;;;;;;;5025061;28;20022;-81
2024/01/22 05:03:59;;;;;;;3.78;1.58;;;;;;;;;;5023401;28;20021;-81
2024/01/22 05:06:24;;;;;;;2.22;1.30;;;;;;;;;;5024793;28;20428;-81
2024/01/22 05:08:50;;;;;;;3.22;1.45;;;;;;;;;;5031156;28;20131;-81
2024/01/22 05:11:15;;;;;;;4.03;1.20;;;;;;;;;;5010334;28;20030;-81
2024/01/22 05:13:52;;;;;;;3.55;1.20;;;;;;;;;;5034960;28;20543;-81
2024/01/22 05:16:18;;;;;;;2.75;1.20;;;;;;;;;;5025109;28;20312;-81
2024/01/22 05:18:44;;;;;;;3.25;1.10;;;;;;;;;;5024046;28;20029;-81
2024/01/22 05:21:10;;;;;;;1.88;1.08;;;;;;;;;;5032783;28;20025;-80
2024/01/22 05:23:35;;;;;;;2.45;1.00;;;;;;;;;;5017352;28;20084;-81
2024/01/22 05:26:01;;;;;;;3.20;1.10;;;;;;;;;;5018477;28;20369;-81
2024/01/22 05:28:26;;;;;;;2.03;1.00;;;;;;;;;;5017636;28;20037;-81
2024/01/22 05:30:51;;;;;;;1.55;0.80;;;;;;;;;;5029114;28;20472;-81
2024/01/22 05:33:17;;;;;;;1.92;0.95;;;;;;;;;;5034861;28;20791;-80
2024/01/22 05:35:42;;;;;;;1.70;0.88;;;;;;;;;;5035227;28;20064;-81
2024/01/22 05:38:08;;;;;;;2.47;0.90;;;;;;;;;;5038490;28;20036;-79
2024/01/22 05:40:33;;;;;;;1.92;0.98;;;;;;;;;;5030800;28;20056;-79
2024/01/22 05:42:58;;;;;;;1.13;0.73;;;;;;;;;;5039317;28;20033;-80
2024/01/22 05:45:25;;;;;;;4.10;1.00;;;;;;;;;;5015469;28;20033;-79
2024/01/22 05:47:51;;;;;;;1.50;0.60;;;;;;;;;;5037691;28;20055;-79
2024/01/22 05:50:16;;;;;;;2.75;0.90;;;;;;;;;;5033735;28;20114;-79
2024/01/22 05:52:42;;;;;;;2.20;0.80;;;;;;;;;;5025003;28;20468;-80
2024/01/22 05:55:08;;;;;;;2.15;1.02;;;;;;;;;;5007115;28;20037;-80
2024/01/22 05:57:33;;;;;;;1.38;0.80;;;;;;;;;;5007009;28;20030;-80
2024/01/22 05:59:58;;;;;;;2.35;0.57;;;;;;;;;;5037802;28;20057;-80
2024/01/22 06:02:25;;;;;;;2.03;0.60;;;;;;;;;;5035372;28;20107;-80
2024/01/22 06:04:51;;;;;;;1.25;0.70;;;;;;;;;;5005588;28;20036;-80
2024/01/22 06:07:17;;;;;;;1.73;0.73;;;;;;;;;;5034776;28;20036;-80
2024/01/22 06:09:43;;;;;;;2.20;0.80;;;;;;;;;;5037380;28;20035;-80
2024/01/22 06:12:08;;;;;;;1.83;0.98;;;;;;;;;;5033231;28;20041;-80
2024/01/22 06:14:34;;;;;;;1.00;0.60;;;;;;;;;;5018975;28;20113;-80
2024/01/22 06:16:59;;;;;;;1.65;0.80;;;;;;;;;;5015625;28;20033;-79
2024/01/22 06:19:25;;;;;;;2.22;0.73;;;;;;;;;;5032767;28;20029;-80
2024/01/22 06:21:50;;;;;;;3.70;0.80;;;;;;;;;;5032153;28;20033;-80
2024/01/22 06:24:15;;;;;;;3.53;0.80;;;;;;;;;;5030304;28;20037;-80
2024/01/22 06:26:41;;;;;;;2.88;0.77;;;;;;;;;;5032746;28;20025;-80
2024/01/22 06:29:11;;;;;;;2.35;0.80;;;;;;;;;;5029655;28;20033;-79
2024/01/22 06:31:36;;;;;;;2.22;0.73;;;;;;;;;;5029810;28;20033;-79
2024/01/22 06:34:02;;;;;;;1.45;0.90;;;;;;;;;;5019840;28;20498;-80
2024/01/22 06:36:29;;;;;;;3.60;0.95;;;;;;;;;;5032067;28;20033;-80
2024/01/22 06:38:54;;;;;;;2.13;0.60;;;;;;;;;;5009889;28;20060;-79
2024/01/22 06:41:22;;;;;;;3.17;0.88;;;;;;;;;;5033291;28;20068;-80
2024/01/22 06:43:48;;;;;;;2.17;0.68;;;;;;;;;;5015566;28;20029;-79
2024/01/22 06:46:13;;;;;;;2.05;0.80;;;;;;;;;;5013067;28;20112;-80
2024/01/22 06:48:38;;;;;;;3.28;0.75;;;;;;;;;;5028051;28;20033;-79
2024/01/22 06:51:04;;;;;;;2.90;0.60;;;;;;;;;;5025038;28;20033;-80
2024/01/22 06:53:29;;;;;;;3.28;0.85;;;;;;;;;;5031621;28;20033;-79
2024/01/22 06:55:55;;;;;;;2.08;0.65;;;;;;;;;;5036680;28;20390;-80
2024/01/22 06:58:20;;;;;;;3.05;0.70;;;;;;;;;;5032549;28;20092;-80
2024/01/22 07:00:47;;;;;;;4.28;1.10;;;;;;;;;;5028397;28;20045;-79
2024/01/22 07:03:13;;;;;;;2.88;0.82;;;;;;;;;;5028879;28;20041;-79
2024/01/22 07:05:39;;;;;;;3.80;0.75;;;;;;;;;;5028088;28;20032;-78
2024/01/22 07:08:05;;;;;;;2.97;0.82;;;;;;;;;;5029807;28;20379;-79
2024/01/22 07:10:31;;;;;;;5.03;0.75;;;;;;;;;;5021575;28;20033;-79
2024/01/22 07:12:57;;;;;;;3.63;1.17;;;;;;;;;;5018475;28;20048;-79
2024/01/22 07:15:22;;;;;;;5.40;0.93;;;;;;;;;;5033814;28;20028;-78
2024/01/22 07:17:48;;;;;;;5.72;0.90;;;;;;;;;;5033665;28;20017;-79
2024/01/22 07:20:14;;;;;;;7.05;1.20;;;;;;;;;;5029491;28;20385;-79
2024/01/22 07:22:41;;;;;;;5.97;1.10;;;;;;;;;;5030569;28;20383;-79
2024/01/22 07:25:06;;;;;;;5.18;0.95;;;;;;;;;;5022097;28;20079;-79
2024/01/22 07:27:32;;;;;;;3.95;0.82;;;;;;;;;;5034659;28;20489;-79
2024/01/22 07:29:57;;;;;;;4.35;1.05;;;;;;;;;;5035089;28;20422;-79
2024/01/22 07:32:23;;;;;;;2.70;0.80;;;;;;;;;;5015809;28;20403;-79
2024/01/22 07:34:48;;;;;;;4.05;1.10;;;;;;;;;;5032019;28;20033;-79
2024/01/22 07:37:13;;;;;;;4.22;0.75;;;;;;;;;;5030255;28;20061;-79
2024/01/22 07:39:40;;;;;;;4.88;0.82;;;;;;;;;;5007394;28;20518;-80
2024/01/22 07:42:05;;;;;;;4.55;0.95;;;;;;;;;;5030100;28;20048;-79
2024/01/22 07:44:31;;;;;;;3.97;0.80;;;;;;;;;;5014415;28;20115;-79
2024/01/22 07:46:58;;;;;;;7.03;1.05;;;;;;;;;;5032868;28;20031;-79
2024/01/22 07:49:24;;;;;;;8.38;1.50;;;;;;;;;;5033992;28;20036;-79
2024/01/22 07:51:49;;;;;;;6.03;1.13;;;;;;;;;;5030418;28;20010;-80
2024/01/22 07:54:14;;;;;;;9.35;1.50;;;;;;;;;;5025448;28;20371;-79
2024/01/22 07:56:40;;;;;;;4.93;1.20;;;;;;;;;;5021965;28;20061;-80
2024/01/22 07:59:05;;;;;;;6.32;1.65;;;;;;;;;;5018339;28;20028;-80
2024/01/22 08:01:32;;;;;;;8.63;1.30;;;;;;;;;;5014038;28;20048;-80
2024/01/22 08:03:57;;;;;;;8.77;1.70;;;;;;;;;;5030682;28;20032;-80
2024/01/22 08:06:23;;;;;;;6.32;1.50;;;;;;;;;;5037342;28;20037;-80
2024/01/22 08:08:48;;;;;;;7.38;1.55;;;;;;;;;;5034237;28;20470;-80
2024/01/22 08:11:14;;;;;;;6.72;1.42;;;;;;;;;;5034052;28;20497;-80
2024/01/22 08:13:39;;;;;;;7.65;1.48;;;;;;;;;;5030835;28;20072;-80
2024/01/22 08:16:05;;;;;;;4.28;1.40;;;;;;;;;;5031068;28;20029;-80
2024/01/22 08:18:30;;;;;;;5.40;1.65;;;;;;;;;;5022793;28;20027;-80
2024/01/22 08:20:55;;;;;;;4.80;1.25;;;;;;;;;;5038142;28;20051;-80
2024/01/22 08:23:21;;;;;;;9.65;1.50;;;;;;;;;;5031273;28;20033;-80
2024/01/22 08:25:46;;;;;;;8.90;1.73;;;;;;;;;;5035892;28;20468;-80
2024/01/22 08:28:11;;;;;;;6.68;1.70;;;;;;;;;;5015859;28;20029;-80
2024/01/22 08:30:37;;;;;;;6.82;1.42;;;;;;;;;;5030540;28;20037;-79
2024/01/22 08:33:02;;;;;;;5.93;1.40;;;;;;;;;;5015721;28;20060;-79
2024/01/22 08:35:28;;;;;;;6.15;1.27;;;;;;;;;;5018024;28;20037;-79
2024/01/22 08:37:53;;;;;;;9.82;1.80;;;;;;;;;;5029467;28;20018;-79
2024/01/22 08:40:23;;;;;;;6.70;1.80;;;;;;;;;;5025724;28;20600;-79
2024/01/22 08:42:53;;;;;;;8.10;1.77;;;;;;;;;;5034314;28;20086;-79
2024/01/22 08:45:19;;;;;;;6.78;1.27;;;;;;;;;;5028982;28;20091;-79
2024/01/22 08:47:46;;;;;;;9.48;1.67;;;;;;;;;;5015689;28;20026;-79
2024/01/22 08:50:17;;;;;;;7.53;1.63;;;;;;;;;;5028186;28;20141;-79
2024/01/22 08:52:43;;;;;;;6.32;1.67;;;;;;;;;;5034319;28;20029;-79
2024/01/22 08:55:09;;;;;;;6.63;1.33;;;;;;;;;;5029237;28;20036;-79
2024/01/22 08:57:35;;;;;;;6.85;1.52;;;;;;;;;;5015718;28;20025;-79
2024/01/22 09:00:00;;;;;;;7.35;1.67;;;;;;;;;;5037134;28;20025;-79
2024/01/22 09:02:26;;;;;;;6.95;1.70;;;;;;;;;;5033449;28;20030;-79
2024/01/22 09:04:51;;;;;;;7.00;1.55;;;;;;;;;;5032215;28;20483;-79
2024/01/22 09:07:16;;;;;;;5.78;1.10;;;;;;;;;;5018448;28;20120;-79
2024/01/22 09:09:42;;;;;;;6.00;1.40;;;;;;;;;;5031354;28;20044;-79
2024/01/22 09:12:08;;;;;;;5.00;1.45;;;;;;;;;;5031608;28;20100;-79
2024/01/22 09:14:33;;;;;;;8.13;1.52;;;;;;;;;;5028695;28;20055;-79
2024/01/22 09:16:59;;;;;;;6.53;1.63;;;;;;;;;;5020406;28;20060;-79
2024/01/22 09:19:24;;;;;;;11.15;1.77;;;;;;;;;;5032141;28;20038;-79
2024/01/22 09:21:49;;;;;;;8.57;2.05;;;;;;;;;;5043952;28;20025;-79
2024/01/22 09:24:15;;;;;;;7.22;1.85;;;;;;;;;;5034311;28;20488;-79
2024/01/22 09:26:40;;;;;;;8.40;1.67;;;;;;;;;;5037035;28;20032;-78
2024/01/22 09:29:05;;;;;;;8.60;1.55;;;;;;;;;;5043084;28;20471;-79
2024/01/22 09:31:31;;;;;;;7.03;1.58;;;;;;;;;;5024049;28;20483;-78
2024/01/22 09:33:57;;;;;;;7.25;1.58;;;;;;;;;;5034682;28;20029;-78
2024/01/22 09:36:22;;;;;;;5.95;1.63;;;;;;;;;;5018365;28;20049;-78
2024/01/22 09:38:47;;;;;;;7.85;1.77;;;;;;;;;;5023689;28;20443;-78
2024/01/22 09:41:15;;;;;;;7.50;2.58;;;;;;;;;;5027109;28;20034;-77
2024/01/22 09:43:41;;;;;;;10.35;2.08;;;;;;;;;;5039398;28;20025;-78
2024/01/22 09:46:07;;;;;;;12.85;2.33;;;;;;;;;;5020813;28;20115;-78
2024/01/22 09:48:35;;;;;;;7.75;1.63;;;;;;;;;;4999883;28;20436;-78
2024/01/22 09:51:06;;;;;;;8.38;1.40;;;;;;;;;;5036626;28;20490;-79
2024/01/22 09:53:35;;;;;;;6.57;1.15;;;;;;;;;;5016047;28;20060;-79
2024/01/22 09:56:04;;;;;;;7.13;1.20;;;;;;;;;;5033044;28;20017;-79
2024/01/22 09:58:34;;;;;;;5.43;1.08;;;;;;;;;;5035427;28;20079;-79
2024/01/22 10:01:02;;;;;;;5.32;1.00;;;;;;;;;;5033318;28;20036;-79
2024/01/22 10:03:30;;;;;;;8.20;1.30;;;;;;;;;;5033632;28;20060;-79
2024/01/22 10:05:58;;;;;;;5.93;1.17;;;;;;;;;;5005106;28;20103;-79
2024/01/22 10:08:24;;;;;;;8.70;1.30;;;;;;;;;;5037090;28;20479;-79
2024/01/22 10:10:49;;;;;;;10.73;1.52;;;;;;;;;;5036568;28;20040;-79
2024/01/22 10:13:17;;;;;;;7.57;1.55;;;;;;;;;;5027417;28;20039;-79
2024/01/22 10:15:43;;;;;;;7.28;1.20;;;;;;;;;;5032818;28;20021;-79
2024/01/22 10:18:16;;;;;;;11.18;1.48;;;;;;;;;;5034063;28;20112;-80
2024/01/22 10:20:44;;;;;;;8.35;1.70;;;;;;;;;;5036199;28;20514;-80
2024/01/22 10:23:11;;;;;;;9.73;1.60;;;;;;;;;;5043970;28;20025;-80
2024/01/22 10:25:37;;;;;;;8.25;1.50;;;;;;;;;;5032813;28;20032;-80
2024/01/22 10:28:17;;;;;;;9.18;2.28;;;;;;;;;;5016970;28;20694;-80
2024/01/22 10:30:44;;;;;;;11.57;1.65;;;;;;;;;;5016877;28;20032;-80
2024/01/22 10:33:17;;;;;;;8.98;1.42;;;;;;;;;;5040423;28;20103;-80
2024/01/22 10:35:47;;;;;;;14.30;1.70;;;;;;;;;;5017026;28;20028;-80
2024/01/22 10:38:18;;;;;;;16.48;2.00;;;;;;;;;;5028530;28;20027;-80
2024/01/22 10:40:45;;;;;;;11.63;1.80;;;;;;;;;;5037647;28;20033;-80
2024/01/22 10:43:28;;;;;;;10.13;1.55;;;;;;;;;;5035778;28;20419;-80
2024/01/22 10:45:55;;;;;;;10.55;1.52;;;;;;;;;;5033779;28;20025;-80
2024/01/22 10:48:27;;;;;;;12.18;1.90;;;;;;;;;;5021071;28;20044;-80
2024/01/22 10:50:52;;;;;;;10.75;1.85;;;;;;;;;;5031149;28;20032;-80
2024/01/22 10:53:19;;;;;;;12.70;1.77;;;;;;;;;;5018583;28;20021;-80
2024/01/22 10:55:57;;;;;;;15.10;2.33;;;;;;;;;;5029491;28;20522;-80
2024/01/22 10:58:26;;;;;;;14.13;2.00;;;;;;;;;;5028966;28;20395;-80
2024/01/22 11:00:57;;;;;;;13.55;2.25;;;;;;;;;;5035454;28;20029;-80
2024/01/22 11:03:27;;;;;;;14.80;2.78;;;;;;;;;;5022903;28;20030;-79
2024/01/22 11:05:57;;;;;;;20.10;2.63;;;;;;;;;;5031723;28;20395;-80
2024/01/22 11:08:23;;;;;;;17.35;2.30;;;;;;;;;;5013953;28;20083;-80
2024/01/22 11:10:50;;;;;;;19.63;2.72;;;;;;;;;;5031861;28;20025;-80
2024/01/22 11:13:16;;;;;;;15.23;2.75;;;;;;;;;;5031601;28;20048;-79
2024/01/22 11:15:42;;;;;;;20.23;3.15;;;;;;;;;;5035275;28;20025;-79
2024/01/22 11:18:10;;;;;;;18.17;2.90;;;;;;;;;;5037841;28;20522;-79
2024/01/22 11:20:37;;;;;;;15.38;2.50;;;;;;;;;;5030714;28;20041;-80
2024/01/22 11:23:09;;;;;;;20.90;3.05;;;;;;;;;;5032463;28;20025;-79
2024/01/22 11:25:35;;;;;;;25.13;3.22;;;;;;;;;;5031202;28;20025;-79
2024/01/22 11:28:03;;;;;;;23.70;4.03;;;;;;;;;;5037118;28;20025;-79
2024/01/22 11:30:32;;;;;;;23.50;3.08;;;;;;;;;;5026171;28;20025;-79
2024/01/22 11:32:57;;;;;;;27.83;3.60;;;;;;;;;;5032552;28;20033;-79
2024/01/22 11:35:34;;;;;;;23.48;3.55;;;;;;;;;;5032029;28;20540;-79
2024/01/22 11:37:59;;;;;;;32.58;4.65;;;;;;;;;;5028139;28;20037;-79
2024/01/22 11:40:50;;;;;;;31.45;4.28;;;;;;;;;;5036591;28;20025;-79
2024/01/22 11:43:17;;;;;;;23.50;3.00;;;;;;;;;;5022743;28;20036;-79
2024/01/22 11:45:50;;;;;;;21.70;3.67;;;;;;;;;;5019453;28;20032;-79
2024/01/22 11:48:19;;;;;;;18.85;3.35;;;;;;;;;;5033843;28;20496;-78
2024/01/22 11:50:56;;;;;;;22.15;3.13;;;;;;;;;;5020563;28;20095;-79
2024/01/22 11:53:21;;;;;;;23.23;3.60;;;;;;;;;;5031426;28;20087;-79
2024/01/22 11:55:59;;;;;;;22.48;3.25;;;;;;;;;;5031436;28;20025;-79
2024/01/22 11:58:25;;;;;;;24.40;3.22;;;;;;;;;;5018004;28;20031;-79
2024/01/22 12:00:52;;;;;;;23.08;3.33;;;;;;;;;;5031062;28;20116;-79
2024/01/22 12:03:25;;;;;;;23.67;3.15;;;;;;;;;;5044926;28;20437;-79
2024/01/22 12:06:07;;;;;;;21.30;3.55;;;;;;;;;;5028509;28;20025;-79
2024/01/22 12:08:37;;;;;;;18.65;3.30;;;;;;;;;;5038837;28;20026;-79
2024/01/22 12:11:06;;;;;;;21.35;3.28;;;;;;;;;;5019463;28;20052;-79
2024/01/22 12:13:32;;;;;;;19.50;2.90;;;;;;;;;;5034446;28;20116;-79
2024/01/22 12:15:57;;;;;;;24.92;3.72;;;;;;;;;;5037872;28;20108;-79
2024/01/22 12:18:23;;;;;;;21.20;3.05;;;;;;;;;;5038538;28;20029;-79
2024/01/22 12:20:49;;;;;;;22.25;3.17;;;;;;;;;;5023557;28;20048;-79
2024/01/22 12:23:27;;;;;;;20.13;3.08;;;;;;;;;;5024756;28;20033;-79
2024/01/22 12:25:53;;;;;;;20.95;3.35;;;;;;;;;;5037199;28;20427;-79
2024/01/22 12:28:18;;;;;;;18.92;3.13;;;;;;;;;;5030082;28;20064;-79
2024/01/22 12:30:44;;;;;;;20.13;3.30;;;;;;;;;;5033807;28;20025;-79
2024/01/22 12:33:24;;;;;;;23.08;2.78;;;;;;;;;;5034938;28;20426;-79
2024/01/22 12:35:51;;;;;;;19.10;2.75;;;;;;;;;;5044134;28;20467;-79
2024/01/22 12:38:20;;;;;;;21.15;3.03;;;;;;;;;;5038007;28;20022;-79
2024/01/22 12:40:46;;;;;;;16.67;2.80;;;;;;;;;;5034384;28;20029;-79
2024/01/22 12:43:11;;;;;;;18.50;2.20;;;;;;;;;;5034994;28;20484;-79
2024/01/22 12:45:36;;;;;;;15.77;2.38;;;;;;;;;;5033364;28;20033;-79
2024/01/22 12:48:02;;;;;;;16.90;2.95;;;;;;;;;;5036354;28;20441;-79
2024/01/22 12:50:29;;;;;;;19.70;2.83;;;;;;;;;;5027709;28;20029;-79
2024/01/22 12:52:54;;;;;;;18.15;2.50;;;;;;;;;;5048022;28;20098;-79
2024/01/22 12:55:20;;;;;;;19.63;3.35;;;;;;;;;;5036626;28;20036;-79
2024/01/22 12:57:45;;;;;;;20.42;2.60;;;;;;;;;;5033026;28;20026;-79
2024/01/22 13:00:12;;;;;;;15.65;2.55;;;;;;;;;;5030282;28;20483;-79
2024/01/22 13:02:39;;;;;;;18.02;2.67;;;;;;;;;;5032796;28;20030;-79
2024/01/22 13:05:06;;;;;;;15.30;2.15;;;;;;;;;;5003152;28;20395;-79
2024/01/22 13:07:36;;;;;;;19.63;2.53;;;;;;;;;;5037802;28;20087;-79
2024/01/22 13:10:02;;;;;;;23.65;2.90;;;;;;;;;;5040004;28;20545;-79
2024/01/22 13:12:28;;;;;;;16.35;2.45;;;;;;;;;;5042214;28;20075;-79
2024/01/22 13:14:55;;;;;;;17.58;2.58;;;;;;;;;;5042144;28;20056;-79
2024/01/22 13:17:21;;;;;;;15.73;2.40;;;;;;;;;;5039836;28;20612;-79
2024/01/22 13:19:47;;;;;;;16.90;2.45;;;;;;;;;;5040855;28;20037;-79
2024/01/22 13:22:13;;;;;;;15.18;3.13;;;;;;;;;;5045395;28;20039;-79
2024/01/22 13:24:39;;;;;;;18.73;3.72;;;;;;;;;;5021979;28;20021;-79
2024/01/22 13:27:06;;;;;;;23.75;2.58;;;;;;;;;;5038759;28;20043;-79
2024/01/22 13:29:31;;;;;;;17.50;2.50;;;;;;;;;;5019737;28;20124;-79
2024/01/22 13:31:57;;;;;;;13.50;2.70;;;;;;;;;;5036693;28;20109;-79
2024/01/22 13:34:24;;;;;;;15.35;2.35;;;;;;;;;;5023461;28;20040;-79
2024/01/22 13:36:50;;;;;;;19.42;3.20;;;;;;;;;;5033530;28;20063;-79
2024/01/22 13:39:16;;;;;;;21.10;2.70;;;;;;;;;;5033299;28;20029;-79
2024/01/22 13:41:41;;;;;;;16.92;2.53;;;;;;;;;;5034021;28;20026;-80
2024/01/22 13:44:11;;;;;;;15.68;2.75;;;;;;;;;;5032151;28;20392;-79
2024/01/22 13:46:36;;;;;;;15.68;2.97;;;;;;;;;;5023853;28;20036;-79
2024/01/22 13:49:03;;;;;;;19.83;2.78;;;;;;;;;;5017196;28;20391;-80
2024/01/22 13:51:28;;;;;;;21.70;3.10;;;;;;;;;;5034828;28;20033;-80
2024/01/22 13:53:54;;;;;;;21.85;2.72;;;;;;;;;;5016146;28;20029;-80
2024/01/22 13:56:19;;;;;;;17.58;3.38;;;;;;;;;;5038472;28;20033;-80
2024/01/22 13:58:45;;;;;;;21.08;3.03;;;;;;;;;;5016253;28;20369;-80
2024/01/22 14:01:10;;;;;;;17.77;2.47;;;;;;;;;;5032489;28;20041;-80
2024/01/22 14:03:36;;;;;;;15.48;2.08;;;;;;;;;;5012588;28;20036;-80
2024/01/22 14:06:03;;;;;;;14.20;2.35;;;;;;;;;;5030579;28;20037;-80
2024/01/22 14:08:28;;;;;;;18.23;2.35;;;;;;;;;;5016784;28;20029;-80
2024/01/22 14:10:54;;;;;;;16.08;2.72;;;;;;;;;;5021890;28;20037;-80
2024/01/22 14:13:20;;;;;;;13.43;2.00;;;;;;;;;;5025200;28;20497;-80
2024/01/22 14:15:45;;;;;;;18.60;3.10;;;;;;;;;;5027308;28;20483;-80
2024/01/22 14:18:11;;;;;;;22.27;2.75;;;;;;;;;;5021312;28;20064;-80
2024/01/22 14:20:36;;;;;;;19.00;2.90;;;;;;;;;;5027599;28;20087;-80
2024/01/22 14:23:08;;;;;;;13.95;2.28;;;;;;;;;;5036391;28;20515;-80
2024/01/22 14:25:35;;;;;;;17.27;2.30;;;;;;;;;;5032668;28;20029;-80
2024/01/22 14:28:01;;;;;;;13.73;2.30;;;;;;;;;;5034287;28;20025;-80
2024/01/22 14:30:27;;;;;;;12.38;1.98;;;;;;;;;;5033989;28;20043;-80
2024/01/22 14:32:52;;;;;;;19.17;2.92;;;;;;;;;;5032705;28;20055;-80
2024/01/22 14:35:25;;;;;;;16.15;2.38;;;;;;;;;;5036038;28;20029;-80